Time;durP1;ratioP1;P1;durP2;ratioP2;P2;SDS_P1;SDS_P2;PMS_P1;PMS_P2;Temp;Humidity;BMP_temperature;BMP_pressure;BME280_temperature;BME280_humidity;BME280_pressure;Samples;Min_cycle;Max_cycle;Signal;HPM_P1;HPM_P2
2023/05/11 00:00:44;;;;;;;0.83;0.60;;;11.90;99.90;;;;;;5110371;28;20667;-70
2023/05/11 00:03:11;;;;;;;0.83;0.60;;;11.80;99.90;;;;;;5112297;28;20617;-70
2023/05/11 00:05:37;;;;;;;0.47;0.40;;;11.70;99.90;;;;;;5112540;28;20746;-70
2023/05/11 00:08:04;;;;;;;0.40;0.37;;;11.70;99.90;;;;;;5112825;28;20971;-70
2023/05/11 00:10:32;;;;;;;0.50;0.50;;;11.80;99.90;;;;;;5111834;27;20769;-70
2023/05/11 00:12:59;;;;;;;0.50;0.50;;;11.80;99.90;;;;;;5103889;28;20614;-70
2023/05/11 00:15:26;;;;;;;1.17;0.57;;;11.70;99.90;;;;;;5112940;28;20658;-70
2023/05/11 00:17:53;;;;;;;1.53;0.67;;;11.70;99.90;;;;;;5112060;28;20649;-70
2023/05/11 00:20:22;;;;;;;0.60;0.60;;;11.70;99.90;;;;;;5111892;28;20619;-70
2023/05/11 00:22:48;;;;;;;1.03;0.50;;;11.70;99.90;;;;;;5112356;28;20661;-70
2023/05/11 00:25:15;;;;;;;1.00;0.90;;;11.70;99.90;;;;;;5112150;27;21146;-70
2023/05/11 00:27:44;;;;;;;0.70;0.70;;;11.80;99.90;;;;;;5112099;28;20625;-70
2023/05/11 00:30:14;;;;;;;0.50;0.40;;;11.80;99.90;;;;;;5111054;28;20647;-70
2023/05/11 00:32:41;;;;;;;0.50;0.40;;;11.70;99.90;;;;;;5111953;28;20663;-70
2023/05/11 00:35:09;;;;;;;0.70;0.63;;;11.70;99.90;;;;;;5112020;28;20633;-70
2023/05/11 00:37:36;;;;;;;0.70;0.70;;;11.70;99.90;;;;;;5112123;28;20619;-70
2023/05/11 00:40:05;;;;;;;1.23;1.03;;;11.70;99.90;;;;;;5111216;28;20658;-70
2023/05/11 00:42:31;;;;;;;0.70;0.70;;;11.70;99.90;;;;;;5112006;27;20628;-71
2023/05/11 00:45:00;;;;;;;0.40;0.33;;;11.70;99.90;;;;;;5112011;28;20634;-70
2023/05/11 00:47:27;;;;;;;0.73;0.47;;;11.60;99.90;;;;;;5111981;28;20650;-70
2023/05/11 00:49:55;;;;;;;0.40;0.30;;;11.60;99.90;;;;;;5111173;28;20626;-70
2023/05/11 00:52:22;;;;;;;0.53;0.43;;;11.60;99.90;;;;;;5111604;28;20665;-71
2023/05/11 00:54:49;;;;;;;0.70;0.50;;;11.50;99.90;;;;;;5111760;28;20624;-70
2023/05/11 00:57:16;;;;;;;0.50;0.50;;;11.60;99.90;;;;;;5111365;28;20638;-70
2023/05/11 00:59:43;;;;;;;0.50;0.50;;;11.50;99.90;;;;;;5111056;28;20632;-69
2023/05/11 01:02:11;;;;;;;0.30;0.30;;;11.50;99.90;;;;;;5110089;28;20646;-70
2023/05/11 01:04:38;;;;;;;1.13;0.93;;;11.60;99.90;;;;;;5110889;28;20622;-70
2023/05/11 01:07:11;;;;;;;0.90;0.40;;;11.50;99.90;;;;;;5110916;28;20653;-70
2023/05/11 01:09:48;;;;;;;1.33;0.60;;;11.50;99.90;;;;;;5110652;28;20721;-70
2023/05/11 01:12:25;;;;;;;0.90;0.90;;;11.50;99.90;;;;;;5111654;28;20666;-70
2023/05/11 01:15:00;;;;;;;0.40;0.30;;;11.50;99.90;;;;;;5111834;28;20676;-70
2023/05/11 01:17:37;;;;;;;0.60;0.40;;;11.40;99.90;;;;;;5111445;28;20653;-70
2023/05/11 01:20:09;;;;;;;0.77;0.70;;;11.40;99.90;;;;;;5111142;28;21216;-70
2023/05/11 01:22:50;;;;;;;1.23;0.73;;;11.50;99.90;;;;;;5111682;28;20683;-71
2023/05/11 01:25:34;;;;;;;0.40;0.40;;;11.40;99.90;;;;;;5103708;28;20625;-70
2023/05/11 01:28:25;;;;;;;0.53;0.53;;;11.40;99.90;;;;;;5111364;28;20629;-70
2023/05/11 01:30:57;;;;;;;0.90;0.50;;;11.50;99.90;;;;;;5109900;28;20760;-71
2023/05/11 01:33:30;;;;;;;0.93;0.80;;;11.30;99.90;;;;;;5103750;28;21186;-70
2023/05/11 01:36:03;;;;;;;0.40;0.40;;;11.30;99.90;;;;;;5111193;28;20760;-70
2023/05/11 01:38:34;;;;;;;0.80;0.60;;;11.30;99.90;;;;;;5103625;28;20715;-70
2023/05/11 01:41:02;;;;;;;0.70;0.50;;;11.40;99.90;;;;;;5110020;28;20629;-70
2023/05/11 01:43:35;;;;;;;0.60;0.60;;;11.30;99.90;;;;;;5103236;28;20670;-70
2023/05/11 01:46:05;;;;;;;1.10;0.70;;;11.30;99.90;;;;;;5111337;28;20709;-70
2023/05/11 01:48:39;;;;;;;0.50;0.40;;;11.40;99.90;;;;;;5111457;28;20741;-70
2023/05/11 01:51:07;;;;;;;0.50;0.50;;;11.40;99.90;;;;;;5110540;28;21239;-70
2023/05/11 01:53:37;;;;;;;0.40;0.40;;;11.40;99.90;;;;;;5111273;28;20706;-70
2023/05/11 01:56:06;;;;;;;0.60;0.60;;;11.30;99.90;;;;;;5111256;28;20670;-70
2023/05/11 01:58:36;;;;;;;2.97;0.50;;;11.40;99.90;;;;;;5111098;28;20821;-70
2023/05/11 02:01:05;;;;;;;0.43;0.40;;;11.40;99.90;;;;;;5108838;28;20630;-70
2023/05/11 02:03:36;;;;;;;0.70;0.50;;;11.40;99.90;;;;;;5111053;28;20629;-70
2023/05/11 02:06:06;;;;;;;0.43;0.43;;;11.40;99.90;;;;;;5110762;28;20680;-70
2023/05/11 02:08:35;;;;;;;0.60;0.50;;;11.40;99.90;;;;;;5111007;28;21043;-71
2023/05/11 02:11:04;;;;;;;0.30;0.30;;;11.40;99.90;;;;;;5110356;28;20754;-70
2023/05/11 02:13:33;;;;;;;0.50;0.50;;;11.40;99.90;;;;;;5110921;28;20622;-70
2023/05/11 02:16:01;;;;;;;1.27;0.70;;;11.40;99.90;;;;;;5110991;28;20749;-70
2023/05/11 02:18:30;;;;;;;0.70;0.53;;;11.40;99.90;;;;;;5110539;28;20661;-70
2023/05/11 02:20:58;;;;;;;0.47;0.47;;;11.40;99.90;;;;;;5113042;28;20641;-70
2023/05/11 02:23:26;;;;;;;1.10;0.97;;;11.40;99.90;;;;;;5114667;28;20649;-70
2023/05/11 02:25:54;;;;;;;0.53;0.53;;;11.40;99.90;;;;;;5114563;28;20644;-70
2023/05/11 02:28:21;;;;;;;1.33;1.03;;;11.40;99.90;;;;;;5114714;28;20686;-70
2023/05/11 02:30:52;;;;;;;0.70;0.70;;;11.50;99.90;;;;;;5113639;28;20669;-70
2023/05/11 02:33:22;;;;;;;0.63;0.53;;;11.50;99.90;;;;;;5105763;28;20665;-70
2023/05/11 02:35:52;;;;;;;1.03;0.60;;;11.50;99.90;;;;;;5114256;28;21185;-70
2023/05/11 02:38:21;;;;;;;1.00;0.67;;;11.40;99.90;;;;;;5114281;28;20720;-70
2023/05/11 02:40:53;;;;;;;1.00;0.47;;;11.40;99.90;;;;;;5113464;28;20665;-70
2023/05/11 02:43:24;;;;;;;1.50;1.40;;;11.40;99.90;;;;;;5113926;28;20619;-70
2023/05/11 02:45:58;;;;;;;0.70;0.57;;;11.30;99.90;;;;;;5113895;28;20648;-70
2023/05/11 02:48:28;;;;;;;0.47;0.47;;;11.30;99.90;;;;;;5114229;28;20621;-70
2023/05/11 02:50:58;;;;;;;0.57;0.57;;;11.40;99.90;;;;;;5113467;28;20722;-70
2023/05/11 02:53:28;;;;;;;0.40;0.40;;;11.40;99.90;;;;;;5113897;28;20660;-70
2023/05/11 02:55:56;;;;;;;0.57;0.50;;;11.40;99.90;;;;;;5113736;28;21205;-69
2023/05/11 02:58:24;;;;;;;0.40;0.40;;;11.40;99.90;;;;;;5114082;28;20619;-70
2023/05/11 03:00:52;;;;;;;0.50;0.50;;;11.40;99.90;;;;;;5111595;28;20637;-70
2023/05/11 03:03:20;;;;;;;0.50;0.50;;;11.40;99.90;;;;;;5113938;28;20611;-70
2023/05/11 03:05:48;;;;;;;0.50;0.43;;;11.40;99.90;;;;;;5113734;28;20649;-70
2023/05/11 03:08:17;;;;;;;0.53;0.50;;;11.30;99.90;;;;;;5113683;28;20637;-70
2023/05/11 03:10:45;;;;;;;0.50;0.50;;;11.30;99.90;;;;;;5112693;28;21030;-70
2023/05/11 03:13:13;;;;;;;0.37;0.33;;;11.40;99.90;;;;;;5113797;27;20993;-70
2023/05/11 03:15:40;;;;;;;0.60;0.60;;;11.40;99.90;;;;;;5112185;28;20646;-70
2023/05/11 03:18:10;;;;;;;0.97;0.43;;;11.30;99.90;;;;;;5113440;28;20632;-70
2023/05/11 03:20:41;;;;;;;1.10;1.00;;;11.40;99.90;;;;;;5113150;27;20748;-71
2023/05/11 03:23:09;;;;;;;0.40;0.40;;;11.40;99.90;;;;;;5104247;28;21231;-70
2023/05/11 03:25:38;;;;;;;0.67;0.67;;;11.30;99.90;;;;;;5113539;28;20649;-71
2023/05/11 03:28:07;;;;;;;0.77;0.60;;;11.30;99.90;;;;;;5113362;28;20626;-70
2023/05/11 03:30:34;;;;;;;0.60;0.60;;;11.30;99.90;;;;;;5112348;28;20754;-70
2023/05/11 03:33:01;;;;;;;0.73;0.73;;;11.30;99.90;;;;;;5112300;28;20702;-70
2023/05/11 03:35:31;;;;;;;0.50;0.50;;;11.30;99.90;;;;;;5113238;28;21171;-71
2023/05/11 03:37:59;;;;;;;0.40;0.40;;;11.40;99.90;;;;;;5113191;28;20679;-70
2023/05/11 03:40:28;;;;;;;0.50;0.30;;;11.40;99.90;;;;;;5103903;28;20641;-71
2023/05/11 03:42:59;;;;;;;1.80;0.80;;;11.40;99.90;;;;;;5113168;28;20617;-71
2023/05/11 03:45:27;;;;;;;0.83;0.70;;;11.40;99.90;;;;;;5113212;28;20642;-71
2023/05/11 03:47:56;;;;;;;0.90;0.90;;;11.40;99.90;;;;;;5112954;28;20962;-71
2023/05/11 03:50:23;;;;;;;0.70;0.70;;;11.30;99.90;;;;;;5111908;28;20721;-70
2023/05/11 03:52:50;;;;;;;0.40;0.37;;;11.30;99.90;;;;;;5112767;28;20745;-71
2023/05/11 03:55:17;;;;;;;0.50;0.50;;;11.30;99.90;;;;;;5112851;28;20713;-71
2023/05/11 03:57:44;;;;;;;1.53;0.70;;;11.30;99.90;;;;;;5104313;28;20630;-71
2023/05/11 04:00:13;;;;;;;0.60;0.50;;;11.20;99.90;;;;;;5110392;28;21606;-70
2023/05/11 04:02:40;;;;;;;0.97;0.73;;;11.20;99.90;;;;;;5112415;28;20724;-71
2023/05/11 04:05:08;;;;;;;0.80;0.60;;;11.20;99.90;;;;;;5112298;28;21159;-71
2023/05/11 04:07:35;;;;;;;0.50;0.50;;;11.20;99.90;;;;;;5112637;28;20613;-71
2023/05/11 04:10:03;;;;;;;0.57;0.57;;;11.20;99.90;;;;;;5111981;28;20619;-71
2023/05/11 04:12:29;;;;;;;0.90;0.50;;;11.10;99.90;;;;;;5112354;28;21305;-71
2023/05/11 04:14:56;;;;;;;0.60;0.50;;;11.20;99.90;;;;;;5112442;28;20622;-71
2023/05/11 04:17:25;;;;;;;1.03;0.67;;;11.20;99.90;;;;;;5112514;28;20639;-71
2023/05/11 04:19:51;;;;;;;0.40;0.40;;;11.20;99.90;;;;;;5111878;28;20622;-71
2023/05/11 04:22:18;;;;;;;1.23;1.10;;;11.20;99.90;;;;;;5112496;28;20645;-71
2023/05/11 04:24:45;;;;;;;0.70;0.70;;;11.20;99.90;;;;;;5112271;28;20631;-71
2023/05/11 04:27:11;;;;;;;0.47;0.43;;;11.20;99.90;;;;;;5112109;28;20670;-71
2023/05/11 04:29:38;;;;;;;0.70;0.70;;;11.20;99.90;;;;;;5111511;28;20661;-70
2023/05/11 04:32:05;;;;;;;1.63;0.90;;;11.20;99.90;;;;;;5111771;28;20674;-71
2023/05/11 04:34:33;;;;;;;0.53;0.50;;;11.20;99.90;;;;;;5112050;28;20628;-71
2023/05/11 04:37:05;;;;;;;0.60;0.60;;;11.20;99.90;;;;;;5112044;28;20651;-71
2023/05/11 04:39:32;;;;;;;1.03;0.80;;;11.20;99.90;;;;;;5103919;28;20624;-70
2023/05/11 04:42:00;;;;;;;0.97;0.50;;;11.20;99.90;;;;;;5111566;28;20648;-71
2023/05/11 04:44:27;;;;;;;0.60;0.60;;;11.20;99.90;;;;;;5111513;28;20649;-70
2023/05/11 04:46:55;;;;;;;0.63;0.63;;;11.30;99.90;;;;;;5111883;28;20733;-70
2023/05/11 04:49:21;;;;;;;0.83;0.83;;;11.30;99.90;;;;;;5111460;28;20614;-69
2023/05/11 04:51:49;;;;;;;1.03;1.03;;;11.30;99.90;;;;;;5111569;28;20661;-70
2023/05/11 04:54:16;;;;;;;0.70;0.50;;;11.40;99.90;;;;;;5111718;28;20619;-70
2023/05/11 04:56:43;;;;;;;0.60;0.40;;;11.30;99.90;;;;;;5103096;28;20664;-70
2023/05/11 04:59:10;;;;;;;0.80;0.80;;;11.30;99.90;;;;;;5111358;28;20619;-70
2023/05/11 05:01:37;;;;;;;1.37;0.80;;;11.30;99.90;;;;;;5109361;28;20646;-70
2023/05/11 05:04:04;;;;;;;1.17;1.03;;;11.30;99.90;;;;;;5111800;28;20657;-70
2023/05/11 05:06:31;;;;;;;0.90;0.90;;;11.30;99.90;;;;;;5111534;28;20652;-70
2023/05/11 05:08:59;;;;;;;1.10;1.00;;;11.40;99.90;;;;;;5111611;28;20618;-69
2023/05/11 05:11:26;;;;;;;1.07;0.70;;;11.40;99.90;;;;;;5110165;28;20647;-69
2023/05/11 05:13:54;;;;;;;1.30;1.20;;;11.40;99.90;;;;;;5111678;28;20622;-70
2023/05/11 05:16:21;;;;;;;4.10;1.00;;;11.40;99.90;;;;;;5110996;28;20646;-70
2023/05/11 05:18:48;;;;;;;1.40;1.10;;;11.40;99.90;;;;;;5110747;28;20617;-70
2023/05/11 05:21:14;;;;;;;0.87;0.73;;;11.50;99.90;;;;;;5110692;28;20646;-70
2023/05/11 05:23:41;;;;;;;1.17;0.70;;;11.50;99.90;;;;;;5111772;28;20621;-70
2023/05/11 05:26:10;;;;;;;1.00;0.93;;;11.50;99.90;;;;;;5110732;28;20650;-70
2023/05/11 05:28:37;;;;;;;1.70;1.20;;;11.50;99.90;;;;;;5111521;28;20618;-70
2023/05/11 05:31:04;;;;;;;2.67;1.97;;;11.50;99.90;;;;;;5110656;28;20665;-70
2023/05/11 05:33:31;;;;;;;2.77;1.50;;;11.50;99.90;;;;;;5111661;28;20664;-70
2023/05/11 05:35:58;;;;;;;1.20;1.10;;;11.50;99.90;;;;;;5111243;28;20644;-70
2023/05/11 05:38:24;;;;;;;1.97;1.10;;;11.50;99.90;;;;;;5102991;28;20720;-70
2023/05/11 05:40:51;;;;;;;4.90;1.50;;;11.50;99.90;;;;;;5110510;28;20652;-70
2023/05/11 05:43:19;;;;;;;1.20;1.00;;;11.50;99.90;;;;;;5111169;28;20620;-70
2023/05/11 05:45:46;;;;;;;0.90;0.90;;;11.60;99.90;;;;;;5111422;28;20648;-70
2023/05/11 05:48:13;;;;;;;0.90;0.77;;;11.50;99.90;;;;;;5111197;28;20628;-70
2023/05/11 05:50:40;;;;;;;0.60;0.60;;;11.60;99.90;;;;;;5110586;28;20649;-71
2023/05/11 05:53:06;;;;;;;0.90;0.90;;;11.50;99.90;;;;;;5110903;28;20653;-70
2023/05/11 05:55:33;;;;;;;0.70;0.70;;;11.60;99.90;;;;;;5113556;28;20723;-70
2023/05/11 05:58:00;;;;;;;1.20;1.20;;;11.60;99.90;;;;;;5115279;28;20637;-70
2023/05/11 06:00:28;;;;;;;1.53;1.43;;;11.60;99.90;;;;;;5112788;27;20645;-70
2023/05/11 06:02:55;;;;;;;0.50;0.50;;;11.60;99.90;;;;;;5115339;27;20618;-70
2023/05/11 06:05:22;;;;;;;0.60;0.50;;;11.60;99.90;;;;;;5115307;28;20610;-70
2023/05/11 06:07:49;;;;;;;1.10;1.00;;;11.60;99.90;;;;;;5114582;28;20629;-70
2023/05/11 06:10:16;;;;;;;0.87;0.73;;;11.70;99.90;;;;;;5114474;28;21235;-70
2023/05/11 06:12:42;;;;;;;1.30;0.90;;;11.70;99.90;;;;;;5115244;28;20753;-70
2023/05/11 06:15:10;;;;;;;0.70;0.70;;;11.70;99.90;;;;;;5114748;28;20623;-70
2023/05/11 06:17:38;;;;;;;0.97;0.53;;;11.70;99.90;;;;;;5114829;28;20618;-70
2023/05/11 06:20:06;;;;;;;0.57;0.57;;;11.80;99.90;;;;;;5113896;28;20615;-69
2023/05/11 06:22:34;;;;;;;0.80;0.80;;;11.80;99.90;;;;;;5114527;28;20637;-70
2023/05/11 06:25:01;;;;;;;0.70;0.60;;;11.80;99.90;;;;;;5114817;28;20631;-70
2023/05/11 06:27:28;;;;;;;0.67;0.60;;;11.90;99.90;;;;;;5114482;28;21270;-70
2023/05/11 06:29:55;;;;;;;0.63;0.60;;;11.90;99.90;;;;;;5113953;28;21174;-70
2023/05/11 06:32:22;;;;;;;1.20;1.10;;;11.70;99.90;;;;;;5114212;28;20666;-71
2023/05/11 06:34:50;;;;;;;0.43;0.40;;;11.60;99.90;;;;;;5114613;28;20614;-70
2023/05/11 06:37:19;;;;;;;0.80;0.80;;;11.60;99.90;;;;;;5114420;27;20744;-70
2023/05/11 06:39:46;;;;;;;0.60;0.60;;;11.70;99.90;;;;;;5114058;28;20650;-70
2023/05/11 06:42:13;;;;;;;0.67;0.60;;;11.80;99.90;;;;;;5114402;28;20745;-71
2023/05/11 06:44:40;;;;;;;0.33;0.33;;;11.80;99.90;;;;;;5114075;28;20984;-70
2023/05/11 06:47:07;;;;;;;0.70;0.70;;;11.80;99.90;;;;;;5114100;28;20651;-70
2023/05/11 06:49:34;;;;;;;0.50;0.47;;;11.70;99.90;;;;;;5104929;28;20664;-70
2023/05/11 06:52:02;;;;;;;1.77;0.80;;;11.80;99.90;;;;;;5113933;28;20769;-70
2023/05/11 06:54:29;;;;;;;0.43;0.40;;;11.80;99.90;;;;;;5114186;28;21037;-70
2023/05/11 06:56:56;;;;;;;0.50;0.50;;;11.90;99.90;;;;;;5114025;28;20700;-70
2023/05/11 06:59:23;;;;;;;0.90;0.73;;;11.90;99.90;;;;;;5113313;28;20620;-71
2023/05/11 07:01:49;;;;;;;1.13;0.87;;;11.90;99.90;;;;;;5111757;28;20755;-70
2023/05/11 07:04:17;;;;;;;0.77;0.77;;;11.90;99.90;;;;;;5114110;28;20622;-71
2023/05/11 07:06:44;;;;;;;0.50;0.50;;;12.00;99.90;;;;;;5113865;27;20674;-70
2023/05/11 07:09:12;;;;;;;0.70;0.60;;;12.00;99.90;;;;;;5113792;28;20611;-70
2023/05/11 07:11:39;;;;;;;1.10;0.87;;;12.00;99.90;;;;;;5113366;28;20645;-69
2023/05/11 07:14:07;;;;;;;0.90;0.87;;;12.10;99.90;;;;;;5113352;28;20745;-70
2023/05/11 07:16:36;;;;;;;0.70;0.70;;;12.20;99.90;;;;;;5113216;28;20645;-69
2023/05/11 07:19:03;;;;;;;0.67;0.43;;;12.20;99.90;;;;;;5113798;28;20622;-69
2023/05/11 07:21:31;;;;;;;0.83;0.63;;;12.20;99.90;;;;;;5112991;28;20642;-69
2023/05/11 07:23:58;;;;;;;0.80;0.80;;;12.30;99.90;;;;;;5113452;28;21153;-70
2023/05/11 07:26:26;;;;;;;1.07;1.00;;;12.30;99.90;;;;;;5113460;28;20641;-69
2023/05/11 07:28:53;;;;;;;2.30;0.80;;;12.30;99.90;;;;;;5112809;28;21181;-69
2023/05/11 07:31:20;;;;;;;2.30;0.70;;;12.40;99.90;;;;;;5112866;28;20757;-69
2023/05/11 07:33:47;;;;;;;0.80;0.63;;;12.40;99.90;;;;;;5113466;28;21254;-69
2023/05/11 07:36:14;;;;;;;1.30;0.83;;;12.40;99.90;;;;;;5113343;28;21037;-69
2023/05/11 07:38:41;;;;;;;0.97;0.90;;;12.40;99.90;;;;;;5112992;28;21171;-70
2023/05/11 07:41:07;;;;;;;2.40;1.23;;;12.40;99.90;;;;;;5112496;28;21240;-70
2023/05/11 07:43:36;;;;;;;2.00;0.80;;;12.50;99.90;;;;;;5112615;28;20622;-70
2023/05/11 07:46:03;;;;;;;2.97;1.20;;;12.50;99.90;;;;;;5113118;28;20723;-70
2023/05/11 07:48:29;;;;;;;0.90;0.90;;;12.50;99.90;;;;;;5113143;28;20627;-69
2023/05/11 07:50:56;;;;;;;3.83;1.13;;;12.50;99.90;;;;;;5112102;28;21233;-69
2023/05/11 07:53:23;;;;;;;1.00;0.80;;;12.50;99.90;;;;;;5112891;28;21206;-69
2023/05/11 07:55:50;;;;;;;2.50;1.03;;;12.50;99.90;;;;;;5112682;28;20635;-69
2023/05/11 07:58:16;;;;;;;1.77;1.10;;;12.60;99.90;;;;;;5112972;28;20633;-69
2023/05/11 08:00:45;;;;;;;1.30;1.20;;;12.60;99.90;;;;;;5110872;28;20648;-69
2023/05/11 08:03:11;;;;;;;1.50;1.40;;;12.60;99.90;;;;;;5113156;28;20640;-69
2023/05/11 08:05:38;;;;;;;0.67;0.67;;;12.70;99.90;;;;;;5112629;28;20687;-69
2023/05/11 08:08:05;;;;;;;0.83;0.83;;;12.70;99.90;;;;;;5112868;28;20627;-69
2023/05/11 08:10:32;;;;;;;0.77;0.70;;;12.80;99.90;;;;;;5112137;28;20649;-70
2023/05/11 08:12:59;;;;;;;0.73;0.73;;;12.80;99.90;;;;;;5104087;28;20658;-70
2023/05/11 08:15:26;;;;;;;1.50;1.30;;;12.70;99.90;;;;;;5112402;28;21237;-69
2023/05/11 08:17:55;;;;;;;0.87;0.87;;;12.70;99.90;;;;;;5112026;28;20712;-69
2023/05/11 08:20:22;;;;;;;1.30;0.77;;;12.70;99.90;;;;;;5112006;28;20628;-69
2023/05/11 08:22:49;;;;;;;1.10;1.00;;;12.60;99.90;;;;;;5112332;28;20620;-69
2023/05/11 08:25:16;;;;;;;0.70;0.60;;;12.50;99.90;;;;;;5111858;28;20726;-69
2023/05/11 08:27:42;;;;;;;0.80;0.70;;;12.40;99.90;;;;;;5112479;28;20629;-69
2023/05/11 08:30:10;;;;;;;1.70;1.00;;;12.40;99.90;;;;;;5111609;28;20973;-69
2023/05/11 08:32:38;;;;;;;4.00;0.80;;;12.50;99.90;;;;;;5112515;28;20633;-69
2023/05/11 08:35:07;;;;;;;0.60;0.60;;;12.60;99.90;;;;;;5111994;28;20629;-69
2023/05/11 08:37:34;;;;;;;0.80;0.80;;;12.50;99.90;;;;;;5111850;28;20980;-70
2023/05/11 08:40:01;;;;;;;0.60;0.60;;;12.60;99.90;;;;;;5111601;28;20625;-70
2023/05/11 08:42:32;;;;;;;3.37;0.93;;;12.70;99.90;;;;;;5107869;28;20637;-70
2023/05/11 08:45:00;;;;;;;0.67;0.67;;;12.80;99.90;;;;;;5112080;28;20623;-69
2023/05/11 08:47:28;;;;;;;0.53;0.53;;;12.70;99.90;;;;;;5112034;28;20983;-70
2023/05/11 08:49:54;;;;;;;0.60;0.60;;;12.70;99.90;;;;;;5111325;28;20630;-69
2023/05/11 08:52:23;;;;;;;0.70;0.67;;;12.50;99.90;;;;;;5111318;28;20655;-69
2023/05/11 08:54:49;;;;;;;0.93;0.73;;;12.50;99.90;;;;;;5112001;28;20655;-69
2023/05/11 08:57:17;;;;;;;0.80;0.53;;;12.70;99.90;;;;;;5112360;28;20643;-70
2023/05/11 08:59:45;;;;;;;0.50;0.50;;;12.80;99.90;;;;;;5103965;28;20615;-69
2023/05/11 09:02:16;;;;;;;0.80;0.80;;;12.80;99.90;;;;;;5110711;28;20653;-70
2023/05/11 09:04:43;;;;;;;0.80;0.80;;;12.40;99.90;;;;;;5111690;28;20727;-70
2023/05/11 09:07:11;;;;;;;0.93;0.87;;;12.40;99.90;;;;;;5111688;28;21058;-70
2023/05/11 09:09:40;;;;;;;0.93;0.70;;;12.50;99.90;;;;;;5111009;28;20635;-69
2023/05/11 09:12:08;;;;;;;0.80;0.60;;;12.40;99.90;;;;;;5111492;28;20733;-69
2023/05/11 09:14:35;;;;;;;1.10;0.60;;;12.50;99.90;;;;;;5111350;28;21276;-69
2023/05/11 09:17:03;;;;;;;0.60;0.50;;;12.50;99.90;;;;;;5111220;28;20639;-69
2023/05/11 09:19:30;;;;;;;1.40;1.30;;;12.70;99.90;;;;;;5111133;28;21196;-69
2023/05/11 09:21:58;;;;;;;0.93;0.77;;;12.60;99.90;;;;;;5111732;28;21003;-69
2023/05/11 09:24:25;;;;;;;0.70;0.70;;;12.50;99.90;;;;;;5111654;28;20973;-69
2023/05/11 09:27:06;;;;;;;0.80;0.80;;;12.20;99.90;;;;;;5111313;28;20733;-69
2023/05/11 09:29:33;;;;;;;0.70;0.70;;;12.40;99.90;;;;;;5111282;28;21171;-69
2023/05/11 09:32:00;;;;;;;0.73;0.73;;;12.60;99.90;;;;;;5115058;28;20649;-69
2023/05/11 09:34:27;;;;;;;1.30;1.20;;;12.50;99.90;;;;;;5115675;28;20656;-69
2023/05/11 09:36:55;;;;;;;0.80;0.80;;;12.50;99.90;;;;;;5115735;28;20644;-70
2023/05/11 09:39:29;;;;;;;1.07;1.07;;;12.50;99.90;;;;;;5115107;28;21198;-69
2023/05/11 09:42:12;;;;;;;0.90;0.67;;;12.50;99.90;;;;;;5115366;28;21236;-69
2023/05/11 09:44:40;;;;;;;1.53;1.20;;;12.50;99.90;;;;;;5108786;28;20611;-69
2023/05/11 09:47:12;;;;;;;0.80;0.80;;;12.70;99.90;;;;;;5115297;28;20648;-69
2023/05/11 09:49:41;;;;;;;0.87;0.87;;;12.80;99.90;;;;;;5107223;28;20615;-69
2023/05/11 09:52:09;;;;;;;4.57;1.43;;;12.70;99.90;;;;;;5115418;28;20642;-70
2023/05/11 09:54:42;;;;;;;1.10;1.00;;;12.70;99.90;;;;;;5115081;28;20646;-70
2023/05/11 09:57:24;;;;;;;1.50;1.03;;;12.80;99.90;;;;;;5115351;28;20634;-69
2023/05/11 09:59:51;;;;;;;0.80;0.80;;;12.80;99.90;;;;;;5108098;28;20615;-69
2023/05/11 10:02:20;;;;;;;1.00;0.87;;;12.50;99.90;;;;;;5114561;28;20646;-69
2023/05/11 10:04:47;;;;;;;0.70;0.70;;;12.60;99.90;;;;;;5114977;28;20626;-69
2023/05/11 10:07:24;;;;;;;1.07;0.73;;;12.70;99.90;;;;;;5114608;27;21228;-69
2023/05/11 10:09:53;;;;;;;1.33;1.23;;;12.70;99.90;;;;;;5114674;28;20621;-69
2023/05/11 10:12:22;;;;;;;0.90;0.90;;;12.70;99.90;;;;;;5114746;28;21203;-69
2023/05/11 10:14:52;;;;;;;0.80;0.80;;;12.70;99.90;;;;;;5114784;28;20663;-70
2023/05/11 10:17:19;;;;;;;1.00;1.00;;;12.60;99.90;;;;;;5114714;28;21057;-69
2023/05/11 10:19:47;;;;;;;0.73;0.70;;;12.80;99.90;;;;;;5113997;28;20622;-69
2023/05/11 10:22:15;;;;;;;1.33;1.07;;;12.90;99.90;;;;;;5114864;28;20767;-69
2023/05/11 10:24:43;;;;;;;1.90;0.90;;;12.70;99.90;;;;;;5114849;28;20613;-69
2023/05/11 10:27:12;;;;;;;0.93;0.67;;;12.70;99.90;;;;;;5114373;28;20692;-69
2023/05/11 10:29:39;;;;;;;0.90;0.77;;;12.60;99.90;;;;;;5114240;28;20627;-69
2023/05/11 10:32:10;;;;;;;1.20;1.10;;;12.70;99.90;;;;;;5114251;27;20669;-70
2023/05/11 10:34:38;;;;;;;1.30;1.20;;;12.70;99.90;;;;;;5114235;28;21020;-69
2023/05/11 10:37:05;;;;;;;1.67;1.27;;;12.50;99.90;;;;;;5114650;28;20640;-69
2023/05/11 10:39:35;;;;;;;0.93;0.93;;;12.90;99.90;;;;;;5113836;28;20630;-68
2023/05/11 10:42:36;;;;;;;1.03;0.73;;;13.10;99.90;;;;;;5113936;28;20643;-69
2023/05/11 10:45:22;;;;;;;1.23;0.90;;;13.10;99.90;;;;;;5087026;28;20696;-69
2023/05/11 10:48:27;;;;;;;1.10;1.00;;;12.70;99.90;;;;;;5107535;28;20978;-69
2023/05/11 10:51:17;;;;;;;1.13;0.97;;;12.70;99.90;;;;;;5088526;28;20643;-69
2023/05/11 10:54:07;;;;;;;1.00;0.90;;;12.80;99.90;;;;;;5077534;28;20657;-69
2023/05/11 10:56:52;;;;;;;1.87;0.83;;;12.60;99.90;;;;;;5110237;28;20659;-69
2023/05/11 10:59:42;;;;;;;1.03;0.90;;;12.80;99.90;;;;;;5113243;28;21202;-69
2023/05/11 11:02:09;;;;;;;0.63;0.60;;;12.70;99.90;;;;;;5107055;28;20642;-70
2023/05/11 11:04:46;;;;;;;0.67;0.67;;;12.70;99.90;;;;;;5113739;28;20623;-69
2023/05/11 11:07:17;;;;;;;0.57;0.57;;;12.80;99.90;;;;;;5113979;27;20650;-69
2023/05/11 11:09:55;;;;;;;1.10;0.70;;;12.80;99.90;;;;;;5112965;28;21190;-69
2023/05/11 11:12:22;;;;;;;1.03;0.90;;;12.80;99.90;;;;;;5113974;28;20680;-69
2023/05/11 11:14:59;;;;;;;0.90;0.80;;;13.10;99.90;;;;;;5113440;28;21343;-70
2023/05/11 11:17:30;;;;;;;0.90;0.90;;;13.20;99.90;;;;;;5113716;28;20635;-69
2023/05/11 11:19:59;;;;;;;0.97;0.97;;;13.20;99.90;;;;;;5112809;28;20626;-69
2023/05/11 11:22:46;;;;;;;0.93;0.70;;;13.50;99.90;;;;;;5113298;28;20646;-69
2023/05/11 11:25:15;;;;;;;0.80;0.80;;;13.80;99.90;;;;;;5104779;28;20610;-70
2023/05/11 11:27:55;;;;;;;1.60;0.80;;;13.90;99.90;;;;;;5113572;28;20615;-70
2023/05/11 11:30:24;;;;;;;1.53;0.77;;;13.80;99.90;;;;;;5104830;28;21172;-70
2023/05/11 11:32:52;;;;;;;0.60;0.60;;;13.40;99.90;;;;;;5113241;28;20631;-70
2023/05/11 11:35:48;;;;;;;1.43;0.67;;;13.10;99.90;;;;;;5112918;28;20645;-70
2023/05/11 11:38:17;;;;;;;1.07;0.90;;;13.50;99.90;;;;;;5113391;28;20716;-70
2023/05/11 11:40:45;;;;;;;1.23;0.83;;;13.60;99.90;;;;;;5112491;27;20647;-70
2023/05/11 11:43:12;;;;;;;0.73;0.73;;;13.50;99.90;;;;;;5112846;28;20621;-70
2023/05/11 11:45:40;;;;;;;1.10;1.00;;;13.50;99.90;;;;;;5113167;28;20637;-70
2023/05/11 11:48:14;;;;;;;1.17;1.07;;;13.30;99.90;;;;;;5113442;28;20615;-70
2023/05/11 11:50:46;;;;;;;0.70;0.70;;;13.40;99.90;;;;;;5104497;28;20689;-70
2023/05/11 11:54:08;;;;;;;0.70;0.70;;;13.50;99.90;;;;;;5112158;28;20640;-70
2023/05/11 11:56:53;;;;;;;2.10;0.90;;;13.20;99.90;;;;;;5111683;28;20648;-70
2023/05/11 11:59:20;;;;;;;0.53;0.53;;;13.20;99.90;;;;;;5112473;28;20764;-70
2023/05/11 12:01:51;;;;;;;0.90;0.70;;;13.30;99.90;;;;;;5111294;28;21048;-70
2023/05/11 12:04:51;;;;;;;1.00;0.97;;;13.40;99.90;;;;;;5113004;28;20616;-70
2023/05/11 12:07:20;;;;;;;0.80;0.80;;;13.90;99.90;;;;;;5107740;28;20668;-70
2023/05/11 12:09:49;;;;;;;0.73;0.73;;;13.60;99.90;;;;;;5112093;28;20630;-70
2023/05/11 12:12:18;;;;;;;1.20;1.10;;;13.60;99.90;;;;;;5111951;28;20686;-70
2023/05/11 12:14:47;;;;;;;0.40;0.40;;;13.70;99.90;;;;;;5112516;28;20665;-70
2023/05/11 12:17:16;;;;;;;1.17;0.60;;;13.80;99.90;;;;;;5112437;28;20645;-70
2023/05/11 12:19:44;;;;;;;0.80;0.60;;;13.90;99.90;;;;;;5112013;28;20739;-70
2023/05/11 12:22:14;;;;;;;1.13;1.03;;;13.80;99.90;;;;;;5104328;28;20640;-70
2023/05/11 12:24:41;;;;;;;0.70;0.70;;;13.90;99.90;;;;;;5112168;28;21004;-70
2023/05/11 12:27:09;;;;;;;0.50;0.50;;;14.30;99.90;;;;;;5111954;28;20742;-70
2023/05/11 12:29:36;;;;;;;0.60;0.53;;;14.40;99.90;;;;;;5111711;28;20626;-70
2023/05/11 12:32:03;;;;;;;0.40;0.40;;;14.30;99.00;;;;;;5111946;28;21232;-70
2023/05/11 12:34:30;;;;;;;0.70;0.40;;;14.10;99.80;;;;;;5112144;28;20655;-70
2023/05/11 12:36:58;;;;;;;0.50;0.50;;;14.20;99.10;;;;;;5112492;28;21192;-70
2023/05/11 12:39:25;;;;;;;0.40;0.40;;;14.10;98.90;;;;;;5111113;28;20636;-70
2023/05/11 12:41:53;;;;;;;0.70;0.60;;;14.30;99.40;;;;;;5111932;27;20987;-70
2023/05/11 12:44:24;;;;;;;0.83;0.77;;;14.20;99.20;;;;;;5112084;28;20618;-70
2023/05/11 12:46:51;;;;;;;0.50;0.50;;;14.40;99.70;;;;;;5112074;28;20637;-70
2023/05/11 12:49:19;;;;;;;0.50;0.50;;;14.60;98.40;;;;;;5111354;28;20617;-70
2023/05/11 12:52:01;;;;;;;0.53;0.47;;;14.80;98.80;;;;;;5111378;28;20630;-70
2023/05/11 12:54:29;;;;;;;0.70;0.60;;;14.80;99.40;;;;;;5112178;28;20756;-70
2023/05/11 12:56:56;;;;;;;0.60;0.60;;;14.00;97.60;;;;;;5112044;28;20652;-70
2023/05/11 12:59:33;;;;;;;0.50;0.50;;;14.00;98.00;;;;;;5111221;28;20650;-70